Time;durP1;ratioP1;P1;durP2;ratioP2;P2;SDS_P1;SDS_P2;PMS_P1;PMS_P2;Temp;Humidity;BMP_temperature;BMP_pressure;BME280_temperature;BME280_humidity;BME280_pressure;Samples;Min_cycle;Max_cycle;Signal;HPM_P1;HPM_P2
2022/10/23 00:00:33;;;;;;;29.40;16.60;;;;;;;;;;5030465;28;20028;-61
2022/10/23 00:02:58;;;;;;;24.77;16.25;;;;;;;;;;5029387;28;20040;-61
2022/10/23 00:05:24;;;;;;;25.75;17.05;;;;;;;;;;5031011;28;20021;-61
2022/10/23 00:07:50;;;;;;;21.65;15.70;;;;;;;;;;5029115;28;20042;-61
2022/10/23 00:10:15;;;;;;;24.50;15.55;;;;;;;;;;5031318;28;20097;-62
2022/10/23 00:12:40;;;;;;;26.70;15.55;;;;;;;;;;5029142;28;20049;-59
2022/10/23 00:15:05;;;;;;;37.80;17.55;;;;;;;;;;5030763;28;20103;-60
2022/10/23 00:17:33;;;;;;;23.90;16.05;;;;;;;;;;5028278;28;20173;-60
2022/10/23 00:19:58;;;;;;;23.65;16.40;;;;;;;;;;5034603;28;20133;-59
2022/10/23 00:22:25;;;;;;;20.48;15.38;;;;;;;;;;5032994;28;20076;-60
2022/10/23 00:24:51;;;;;;;29.48;14.82;;;;;;;;;;5034931;28;20515;-59
2022/10/23 00:27:16;;;;;;;25.63;16.07;;;;;;;;;;5033500;28;20041;-60
2022/10/23 00:29:42;;;;;;;22.47;15.57;;;;;;;;;;5033934;28;20452;-59
2022/10/23 00:32:08;;;;;;;22.23;15.32;;;;;;;;;;5033116;28;20456;-60
2022/10/23 00:34:33;;;;;;;20.07;15.13;;;;;;;;;;5034639;28;20511;-60
2022/10/23 00:36:58;;;;;;;22.17;14.95;;;;;;;;;;5032424;28;20460;-60
2022/10/23 00:39:23;;;;;;;28.20;16.90;;;;;;;;;;5034615;28;20076;-60
2022/10/23 00:41:48;;;;;;;19.63;15.30;;;;;;;;;;5032843;28;20045;-60
2022/10/23 00:44:16;;;;;;;24.08;14.88;;;;;;;;;;5034419;28;20025;-60
2022/10/23 00:46:42;;;;;;;25.80;16.25;;;;;;;;;;5032671;28;20107;-60
2022/10/23 00:49:08;;;;;;;32.40;16.38;;;;;;;;;;5034471;28;20022;-60
2022/10/23 00:51:39;;;;;;;20.15;15.48;;;;;;;;;;5032716;28;20426;-60
2022/10/23 00:54:04;;;;;;;25.88;16.42;;;;;;;;;;5034055;28;20021;-60
2022/10/23 00:56:30;;;;;;;32.58;15.38;;;;;;;;;;5032752;28;20026;-60
2022/10/23 00:58:55;;;;;;;20.42;13.23;;;;;;;;;;5034527;28;20017;-60
2022/10/23 01:01:21;;;;;;;26.92;15.13;;;;;;;;;;5032687;28;20065;-60
2022/10/23 01:03:47;;;;;;;26.08;16.02;;;;;;;;;;5034031;28;20048;-60
2022/10/23 01:06:31;;;;;;;27.42;18.08;;;;;;;;;;5033688;28;20021;-60
2022/10/23 01:09:09;;;;;;;30.00;14.55;;;;;;;;;;5032642;28;20065;-59
2022/10/23 01:11:34;;;;;;;28.67;15.27;;;;;;;;;;5032644;28;20013;-59
2022/10/23 01:14:02;;;;;;;28.45;16.80;;;;;;;;;;5033375;28;20017;-59
2022/10/23 01:16:27;;;;;;;20.95;14.35;;;;;;;;;;5032213;28;20022;-59
2022/10/23 01:19:03;;;;;;;25.13;16.00;;;;;;;;;;5034010;28;20086;-59
2022/10/23 01:21:47;;;;;;;26.02;14.73;;;;;;;;;;5031664;28;20496;-59
2022/10/23 01:24:21;;;;;;;22.27;17.33;;;;;;;;;;5033719;28;20029;-59
2022/10/23 01:27:05;;;;;;;22.35;14.43;;;;;;;;;;5031974;28;20038;-59
2022/10/23 01:29:30;;;;;;;23.98;14.45;;;;;;;;;;5032957;28;20021;-59
2022/10/23 01:31:58;;;;;;;23.45;15.85;;;;;;;;;;5032048;28;20083;-59
2022/10/23 01:34:31;;;;;;;33.60;17.08;;;;;;;;;;5033622;28;20384;-58
2022/10/23 01:36:58;;;;;;;27.67;14.15;;;;;;;;;;5031662;28;20444;-60
2022/10/23 01:39:28;;;;;;;29.67;15.70;;;;;;;;;;5032973;28;20388;-60
2022/10/23 01:41:59;;;;;;;30.05;15.88;;;;;;;;;;5032105;28;20048;-60
2022/10/23 01:44:38;;;;;;;22.80;16.50;;;;;;;;;;5032913;28;20017;-60
2022/10/23 01:47:03;;;;;;;;;;;;;;;;;;5032350;28;20099;-60
2022/10/23 01:49:29;;;;;;;25.63;16.45;;;;;;;;;;5033162;28;19905;-61
2022/10/23 01:51:56;;;;;;;27.67;15.23;;;;;;;;;;5030000;28;20561;-60
2022/10/23 01:54:23;;;;;;;25.65;14.57;;;;;;;;;;5033039;28;20047;-60
2022/10/23 01:56:50;;;;;;;20.63;15.20;;;;;;;;;;5031920;28;20534;-60
2022/10/23 01:59:18;;;;;;;29.02;17.13;;;;;;;;;;5032722;28;20025;-60
2022/10/23 02:01:45;;;;;;;33.65;17.20;;;;;;;;;;5031370;28;20083;-60
2022/10/23 02:04:12;;;;;;;18.02;15.45;;;;;;;;;;5033187;28;20104;-60
2022/10/23 02:06:37;;;;;;;20.63;15.38;;;;;;;;;;5031116;28;20037;-60
2022/10/23 02:09:03;;;;;;;23.38;17.33;;;;;;;;;;5032723;28;20028;-61
2022/10/23 02:11:30;;;;;;;34.42;18.65;;;;;;;;;;5031396;28;20465;-61
2022/10/23 02:14:22;;;;;;;26.08;15.95;;;;;;;;;;5032733;28;20025;-61
2022/10/23 02:16:52;;;;;;;26.27;16.00;;;;;;;;;;5022351;28;20038;-61
2022/10/23 02:19:31;;;;;;;21.10;16.70;;;;;;;;;;5032724;28;20035;-62
2022/10/23 02:22:05;;;;;;;42.47;17.13;;;;;;;;;;5030783;28;20068;-61
2022/10/23 02:24:33;;;;;;;27.67;17.17;;;;;;;;;;5032663;28;20021;-61
2022/10/23 02:27:00;;;;;;;27.92;16.42;;;;;;;;;;5031146;28;20124;-61
2022/10/23 02:29:34;;;;;;;25.85;14.82;;;;;;;;;;5032232;28;20025;-60
2022/10/23 02:32:00;;;;;;;23.75;15.57;;;;;;;;;;5031286;28;20091;-60
2022/10/23 02:34:25;;;;;;;25.30;17.55;;;;;;;;;;5032201;28;20021;-59
2022/10/23 02:36:51;;;;;;;27.45;16.05;;;;;;;;;;5030247;28;20136;-59
2022/10/23 02:39:16;;;;;;;27.80;16.10;;;;;;;;;;5032387;28;20022;-59
2022/10/23 02:41:54;;;;;;;30.37;16.67;;;;;;;;;;5030119;28;20068;-60
2022/10/23 02:44:38;;;;;;;27.35;17.65;;;;;;;;;;5032147;28;20431;-60
2022/10/23 02:47:35;;;;;;;33.40;18.13;;;;;;;;;;5030759;28;20128;-60
2022/10/23 02:50:19;;;;;;;30.17;16.83;;;;;;;;;;4998514;28;20049;-60
2022/10/23 02:53:03;;;;;;;23.50;16.67;;;;;;;;;;5028720;28;20439;-61
2022/10/23 02:55:40;;;;;;;30.83;14.68;;;;;;;;;;5031862;28;20613;-60
2022/10/23 02:58:11;;;;;;;21.13;15.25;;;;;;;;;;5030280;28;20040;-60
2022/10/23 03:00:38;;;;;;;23.40;15.73;;;;;;;;;;5031962;28;20028;-60
2022/10/23 03:03:14;;;;;;;25.10;14.82;;;;;;;;;;5030500;28;20107;-60
2022/10/23 03:05:40;;;;;;;18.90;13.00;;;;;;;;;;5031363;28;20017;-60
2022/10/23 03:08:07;;;;;;;26.58;15.50;;;;;;;;;;5030056;28;20427;-59
2022/10/23 03:10:32;;;;;;;32.45;16.65;;;;;;;;;;5031720;28;20036;-60
2022/10/23 03:12:57;;;;;;;22.70;14.75;;;;;;;;;;5030168;28;20037;-60
2022/10/23 03:15:22;;;;;;;21.17;14.50;;;;;;;;;;5031301;28;20104;-60
2022/10/23 03:17:48;;;;;;;22.88;15.60;;;;;;;;;;5030394;28;20401;-60
2022/10/23 03:20:13;;;;;;;27.57;13.97;;;;;;;;;;5031031;28;20033;-60
2022/10/23 03:22:38;;;;;;;26.63;15.63;;;;;;;;;;5029943;28;20041;-60
2022/10/23 03:25:04;;;;;;;26.08;13.65;;;;;;;;;;5031979;28;20026;-60
2022/10/23 03:27:29;;;;;;;24.65;15.05;;;;;;;;;;5029628;28;20120;-60
2022/10/23 03:29:54;;;;;;;25.90;16.70;;;;;;;;;;5031408;28;20025;-60
2022/10/23 03:32:19;;;;;;;25.13;14.07;;;;;;;;;;5029727;28;20042;-60
2022/10/23 03:34:44;;;;;;;23.30;15.50;;;;;;;;;;5030601;28;20464;-60
2022/10/23 03:37:10;;;;;;;36.57;18.33;;;;;;;;;;5030088;28;20100;-60
2022/10/23 03:39:35;;;;;;;24.00;15.88;;;;;;;;;;5031294;28;20018;-60
2022/10/23 03:42:00;;;;;;;22.80;16.40;;;;;;;;;;5031104;28;20040;-61
2022/10/23 03:44:25;;;;;;;23.40;15.60;;;;;;;;;;5029440;28;20036;-60
2022/10/23 03:46:50;;;;;;;36.27;20.30;;;;;;;;;;5031052;28;20519;-60
2022/10/23 03:49:15;;;;;;;31.73;20.30;;;;;;;;;;5029817;28;20551;-60
2022/10/23 03:51:41;;;;;;;43.95;20.38;;;;;;;;;;5030539;28;20415;-60
2022/10/23 03:54:06;;;;;;;33.28;17.27;;;;;;;;;;5028973;28;20033;-60
2022/10/23 03:56:31;;;;;;;30.88;20.02;;;;;;;;;;5030986;28;20029;-60
2022/10/23 03:58:57;;;;;;;30.23;16.50;;;;;;;;;;5028697;28;20033;-60
2022/10/23 04:01:22;;;;;;;44.70;17.67;;;;;;;;;;5031193;28;20887;-60
2022/10/23 04:03:47;;;;;;;26.97;14.73;;;;;;;;;;5029215;28;20049;-60
2022/10/23 04:06:12;;;;;;;31.40;17.02;;;;;;;;;;5030594;28;20059;-60
2022/10/23 04:08:37;;;;;;;40.50;19.03;;;;;;;;;;5029137;28;20056;-60
2022/10/23 04:11:02;;;;;;;30.10;17.37;;;;;;;;;;5031150;28;20444;-60
2022/10/23 04:13:28;;;;;;;32.60;17.88;;;;;;;;;;5028599;28;20478;-60
2022/10/23 04:15:53;;;;;;;26.92;18.92;;;;;;;;;;5030984;28;20037;-60
2022/10/23 04:18:18;;;;;;;32.90;18.47;;;;;;;;;;5029526;28;20034;-61
2022/10/23 04:20:46;;;;;;;27.67;17.47;;;;;;;;;;5029937;28;20436;-61
2022/10/23 04:23:11;;;;;;;27.03;15.73;;;;;;;;;;5029449;28;20400;-61
2022/10/23 04:25:36;;;;;;;39.30;17.70;;;;;;;;;;5030428;28;20018;-61
2022/10/23 04:28:01;;;;;;;26.65;18.17;;;;;;;;;;5028852;28;20038;-61
2022/10/23 04:30:26;;;;;;;32.50;18.10;;;;;;;;;;5030558;28;20025;-61
2022/10/23 04:32:51;;;;;;;29.48;18.17;;;;;;;;;;5029185;28;20038;-61
2022/10/23 04:35:17;;;;;;;46.93;22.83;;;;;;;;;;5030430;28;20081;-61
2022/10/23 04:37:42;;;;;;;24.58;17.23;;;;;;;;;;5029163;28;20037;-61
2022/10/23 04:40:08;;;;;;;37.58;20.98;;;;;;;;;;5030502;28;20028;-61
2022/10/23 04:42:33;;;;;;;28.88;18.45;;;;;;;;;;5028288;28;20408;-61
2022/10/23 04:44:58;;;;;;;31.23;18.23;;;;;;;;;;5030767;28;20480;-60
2022/10/23 04:47:24;;;;;;;25.07;16.97;;;;;;;;;;5029139;28;20172;-60
2022/10/23 04:49:49;;;;;;;32.95;18.70;;;;;;;;;;5030518;28;20018;-60
2022/10/23 04:52:14;;;;;;;23.80;16.70;;;;;;;;;;5029443;28;20117;-60
2022/10/23 04:54:39;;;;;;;24.70;17.23;;;;;;;;;;5030380;28;20383;-60
2022/10/23 04:57:04;;;;;;;35.73;19.50;;;;;;;;;;5028822;28;20428;-60
2022/10/23 04:59:30;;;;;;;32.60;20.03;;;;;;;;;;5030318;28;21019;-60
2022/10/23 05:01:55;;;;;;;29.02;21.10;;;;;;;;;;5028862;28;21036;-60
2022/10/23 05:04:20;;;;;;;33.30;21.40;;;;;;;;;;5031114;28;20061;-60
2022/10/23 05:06:45;;;;;;;26.73;21.93;;;;;;;;;;5032614;28;20091;-61
2022/10/23 05:09:10;;;;;;;34.03;21.30;;;;;;;;;;5034008;28;20766;-60
2022/10/23 05:11:35;;;;;;;33.88;19.65;;;;;;;;;;5032199;28;20439;-61
2022/10/23 05:14:00;;;;;;;28.58;19.33;;;;;;;;;;5033990;28;20025;-61
2022/10/23 05:16:38;;;;;;;39.65;22.15;;;;;;;;;;5032505;28;20100;-60
2022/10/23 05:19:06;;;;;;;28.00;20.58;;;;;;;;;;5033396;28;20383;-60
2022/10/23 05:21:32;;;;;;;41.03;21.50;;;;;;;;;;5032188;28;20018;-61
2022/10/23 05:23:59;;;;;;;30.27;21.67;;;;;;;;;;5033629;28;20029;-59
2022/10/23 05:26:24;;;;;;;31.40;20.10;;;;;;;;;;5031963;28;20027;-60
2022/10/23 05:28:49;;;;;;;32.13;20.50;;;;;;;;;;5033784;28;20382;-60
2022/10/23 05:31:14;;;;;;;34.97;21.00;;;;;;;;;;5033576;28;20033;-60
2022/10/23 05:33:40;;;;;;;28.77;19.77;;;;;;;;;;5031487;28;20033;-60
2022/10/23 05:36:06;;;;;;;32.35;22.70;;;;;;;;;;5033613;28;20046;-60
2022/10/23 05:38:32;;;;;;;34.15;20.30;;;;;;;;;;5031723;28;20038;-60
2022/10/23 05:40:57;;;;;;;40.70;22.60;;;;;;;;;;5033204;28;20062;-59
2022/10/23 05:43:22;;;;;;;39.05;21.33;;;;;;;;;;5031804;28;20524;-59
2022/10/23 05:45:47;;;;;;;33.63;22.60;;;;;;;;;;5032950;28;20018;-69
2022/10/23 05:48:13;;;;;;;30.67;20.73;;;;;;;;;;5030506;28;20482;-58
2022/10/23 05:50:38;;;;;;;28.73;20.17;;;;;;;;;;5032682;28;20013;-59
2022/10/23 05:53:03;;;;;;;31.73;21.27;;;;;;;;;;5030999;28;20041;-58
2022/10/23 05:55:28;;;;;;;32.70;19.88;;;;;;;;;;5032635;28;20536;-59
2022/10/23 05:57:54;;;;;;;40.53;20.60;;;;;;;;;;5031634;28;20030;-58
2022/10/23 06:00:19;;;;;;;39.63;21.30;;;;;;;;;;5030640;28;20495;-59
2022/10/23 06:02:44;;;;;;;31.63;21.95;;;;;;;;;;5022116;28;20068;-58
2022/10/23 06:05:09;;;;;;;33.63;20.92;;;;;;;;;;5013290;28;20032;-58
2022/10/23 06:07:34;;;;;;;38.47;21.73;;;;;;;;;;5030512;28;20040;-59
2022/10/23 06:10:00;;;;;;;31.13;19.73;;;;;;;;;;5031218;28;20825;-59
2022/10/23 06:12:25;;;;;;;32.42;18.27;;;;;;;;;;5030335;28;20435;-59
2022/10/23 06:14:50;;;;;;;25.20;18.98;;;;;;;;;;5026957;28;20072;-59
2022/10/23 06:17:15;;;;;;;38.28;19.02;;;;;;;;;;5028806;28;20080;-58
2022/10/23 06:19:42;;;;;;;30.03;21.37;;;;;;;;;;5031509;28;20499;-59
2022/10/23 06:22:07;;;;;;;34.28;20.30;;;;;;;;;;5030338;28;20457;-59
2022/10/23 06:24:32;;;;;;;27.70;19.03;;;;;;;;;;5030796;28;20465;-59
2022/10/23 06:26:58;;;;;;;33.70;20.63;;;;;;;;;;5030201;28;20487;-58
2022/10/23 06:29:23;;;;;;;30.45;20.25;;;;;;;;;;5031825;28;20021;-59
2022/10/23 06:31:48;;;;;;;32.87;19.30;;;;;;;;;;5029880;28;20033;-59
2022/10/23 06:34:13;;;;;;;27.03;17.83;;;;;;;;;;5031426;28;20448;-59
2022/10/23 06:36:39;;;;;;;30.80;19.40;;;;;;;;;;5029615;28;20503;-58
2022/10/23 06:39:04;;;;;;;28.50;16.75;;;;;;;;;;5029955;28;20026;-60
2022/10/23 06:41:29;;;;;;;27.75;18.45;;;;;;;;;;5029549;28;20034;-59
2022/10/23 06:43:55;;;;;;;30.17;19.48;;;;;;;;;;5031959;28;20032;-58
2022/10/23 06:46:20;;;;;;;28.15;16.42;;;;;;;;;;5028976;28;20053;-57
2022/10/23 06:48:45;;;;;;;29.03;17.23;;;;;;;;;;5031116;28;20436;-58
2022/10/23 06:51:12;;;;;;;44.28;22.17;;;;;;;;;;5031620;28;20018;-59
2022/10/23 06:53:37;;;;;;;25.80;16.60;;;;;;;;;;5028265;28;20452;-59
2022/10/23 06:56:03;;;;;;;40.53;17.83;;;;;;;;;;5031412;28;20083;-58
2022/10/23 06:58:29;;;;;;;30.95;17.08;;;;;;;;;;5029965;28;20038;-59
2022/10/23 07:00:54;;;;;;;26.13;17.88;;;;;;;;;;5030159;28;20528;-59
2022/10/23 07:03:19;;;;;;;28.87;17.30;;;;;;;;;;5029366;28;20033;-59
2022/10/23 07:05:46;;;;;;;23.67;15.82;;;;;;;;;;5030703;28;20412;-59
2022/10/23 07:08:11;;;;;;;26.60;16.55;;;;;;;;;;5028617;28;20041;-58
2022/10/23 07:10:36;;;;;;;25.85;16.25;;;;;;;;;;5029937;28;20028;-58
2022/10/23 07:13:02;;;;;;;27.90;16.25;;;;;;;;;;5029870;28;20037;-58
2022/10/23 07:15:27;;;;;;;24.83;15.07;;;;;;;;;;5030337;28;20029;-58
2022/10/23 07:17:52;;;;;;;20.50;14.93;;;;;;;;;;5029474;28;20037;-59
2022/10/23 07:20:17;;;;;;;27.58;15.57;;;;;;;;;;5029318;28;20018;-58
2022/10/23 07:22:43;;;;;;;21.53;15.63;;;;;;;;;;5027514;28;20049;-59
2022/10/23 07:25:08;;;;;;;31.17;16.90;;;;;;;;;;5024992;28;20029;-59
2022/10/23 07:27:35;;;;;;;25.70;14.68;;;;;;;;;;5028042;28;20565;-59
2022/10/23 07:30:00;;;;;;;22.75;13.45;;;;;;;;;;5029701;28;20388;-59
2022/10/23 07:32:27;;;;;;;15.40;12.30;;;;;;;;;;5027880;28;20033;-59
2022/10/23 07:34:52;;;;;;;22.45;13.73;;;;;;;;;;5030240;28;20468;-59
2022/10/23 07:37:17;;;;;;;19.25;12.88;;;;;;;;;;5029080;28;20048;-58
2022/10/23 07:39:42;;;;;;;18.85;11.02;;;;;;;;;;5025859;28;20033;-58
2022/10/23 07:42:08;;;;;;;21.53;13.07;;;;;;;;;;5045265;28;20543;-59
2022/10/23 07:44:33;;;;;;;19.10;12.15;;;;;;;;;;5036863;28;20017;-59
2022/10/23 07:46:59;;;;;;;20.73;12.20;;;;;;;;;;5027716;28;20537;-58
2022/10/23 07:49:24;;;;;;;14.35;10.73;;;;;;;;;;5029607;28;20040;-59
2022/10/23 07:51:51;;;;;;;13.45;11.00;;;;;;;;;;5029439;28;20132;-58
2022/10/23 07:54:16;;;;;;;16.73;12.77;;;;;;;;;;5029247;28;20021;-58
2022/10/23 07:56:41;;;;;;;15.75;10.25;;;;;;;;;;5028994;28;20526;-58
2022/10/23 07:59:09;;;;;;;12.97;9.83;;;;;;;;;;5030712;28;20076;-58
2022/10/23 08:01:36;;;;;;;26.65;10.85;;;;;;;;;;5026740;28;20444;-58
2022/10/23 08:04:01;;;;;;;12.27;9.30;;;;;;;;;;5029307;28;20025;-58
2022/10/23 08:06:27;;;;;;;12.70;8.63;;;;;;;;;;5028696;28;20013;-59
2022/10/23 08:08:52;;;;;;;15.18;9.82;;;;;;;;;;5027775;28;20022;-59
2022/10/23 08:11:23;;;;;;;11.67;9.13;;;;;;;;;;5028190;28;20057;-57
2022/10/23 08:13:48;;;;;;;47.03;10.07;;;;;;;;;;5029764;28;20017;-58
2022/10/23 08:16:14;;;;;;;22.63;10.15;;;;;;;;;;5028967;28;20024;-58
2022/10/23 08:18:41;;;;;;;9.90;8.57;;;;;;;;;;5015142;28;20045;-59
2022/10/23 08:21:06;;;;;;;11.57;8.80;;;;;;;;;;5029542;28;20032;-58
2022/10/23 08:23:31;;;;;;;15.97;9.17;;;;;;;;;;5026417;28;20041;-58
2022/10/23 08:25:59;;;;;;;12.87;9.07;;;;;;;;;;5029706;28;20447;-58
2022/10/23 08:28:24;;;;;;;17.15;9.05;;;;;;;;;;5028151;28;20030;-59
2022/10/23 08:30:49;;;;;;;18.25;8.73;;;;;;;;;;5028910;28;20071;-58
2022/10/23 08:33:14;;;;;;;17.23;7.47;;;;;;;;;;5026194;28;20063;-59
2022/10/23 08:35:39;;;;;;;13.70;9.98;;;;;;;;;;5040149;28;20404;-58
2022/10/23 08:38:05;;;;;;;17.57;8.67;;;;;;;;;;5027111;28;20073;-59
2022/10/23 08:40:30;;;;;;;10.02;7.07;;;;;;;;;;5033019;28;20021;-59
2022/10/23 08:43:01;;;;;;;16.23;9.65;;;;;;;;;;5032586;28;20503;-59
2022/10/23 08:45:34;;;;;;;15.95;9.07;;;;;;;;;;5032735;28;20035;-59
2022/10/23 08:48:03;;;;;;;17.33;8.30;;;;;;;;;;5031963;28;20045;-59
2022/10/23 08:50:28;;;;;;;;;;;;;;;;;;5033427;28;20036;-58
2022/10/23 08:53:01;;;;;;;10.20;8.50;;;;;;;;;;5031149;28;19916;-58
2022/10/23 08:55:29;;;;;;;14.18;8.77;;;;;;;;;;5032435;28;20025;-58
2022/10/23 08:58:00;;;;;;;13.80;9.25;;;;;;;;;;5031441;28;20547;-59
2022/10/23 09:00:26;;;;;;;11.25;8.60;;;;;;;;;;5031718;28;20496;-58
2022/10/23 09:02:52;;;;;;;11.85;7.88;;;;;;;;;;5032120;28;20037;-58
2022/10/23 09:05:20;;;;;;;14.90;7.28;;;;;;;;;;5033507;28;20045;-58
2022/10/23 09:07:57;;;;;;;13.13;7.40;;;;;;;;;;5030200;28;20048;-59
2022/10/23 09:10:41;;;;;;;12.23;7.70;;;;;;;;;;5033166;28;21045;-58
2022/10/23 09:13:18;;;;;;;9.52;7.72;;;;;;;;;;5031959;28;20045;-58
2022/10/23 09:15:46;;;;;;;11.93;9.20;;;;;;;;;;5032207;28;20720;-58
2022/10/23 09:18:12;;;;;;;13.23;7.95;;;;;;;;;;5032217;28;20488;-58
2022/10/23 09:20:38;;;;;;;18.27;6.95;;;;;;;;;;5032982;28;20021;-59
2022/10/23 09:23:13;;;;;;;9.57;6.72;;;;;;;;;;5030753;28;20033;-58
2022/10/23 09:25:39;;;;;;;8.30;7.28;;;;;;;;;;5033128;28;20029;-58
2022/10/23 09:28:04;;;;;;;11.55;8.48;;;;;;;;;;5031177;28;20044;-59
2022/10/23 09:30:30;;;;;;;11.15;8.00;;;;;;;;;;5031949;28;20025;-59
2022/10/23 09:32:56;;;;;;;9.82;6.38;;;;;;;;;;5031630;28;20072;-58
2022/10/23 09:35:22;;;;;;;15.20;7.90;;;;;;;;;;5032882;28;20144;-58
2022/10/23 09:37:51;;;;;;;10.40;6.97;;;;;;;;;;5030410;28;20041;-59
2022/10/23 09:40:21;;;;;;;10.80;6.22;;;;;;;;;;5033371;28;20025;-59
2022/10/23 09:43:00;;;;;;;13.13;6.47;;;;;;;;;;5031318;28;20037;-59
2022/10/23 09:45:28;;;;;;;9.00;5.90;;;;;;;;;;5031372;28;20500;-59
2022/10/23 09:48:14;;;;;;;6.78;6.13;;;;;;;;;;5031148;28;20204;-59
2022/10/23 09:50:56;;;;;;;10.57;6.28;;;;;;;;;;5030427;28;20037;-59
2022/10/23 09:53:24;;;;;;;11.85;5.38;;;;;;;;;;5030820;28;20049;-58
2022/10/23 09:55:51;;;;;;;14.40;6.40;;;;;;;;;;5030450;28;20061;-59
2022/10/23 09:58:33;;;;;;;11.68;6.55;;;;;;;;;;5030644;28;20044;-59
2022/10/23 10:00:58;;;;;;;8.82;5.25;;;;;;;;;;5032051;28;20029;-58
2022/10/23 10:03:23;;;;;;;13.40;5.05;;;;;;;;;;5030101;28;20038;-59
2022/10/23 10:05:53;;;;;;;7.57;4.90;;;;;;;;;;5031252;28;20025;-58
2022/10/23 10:08:43;;;;;;;11.82;4.72;;;;;;;;;;5029795;28;20522;-59
2022/10/23 10:11:11;;;;;;;11.98;7.47;;;;;;;;;;5032886;28;20369;-59
2022/10/23 10:13:56;;;;;;;8.10;4.78;;;;;;;;;;5030499;28;20095;-59
2022/10/23 10:16:37;;;;;;;9.85;5.07;;;;;;;;;;5026841;28;20174;-59
2022/10/23 10:19:11;;;;;;;11.82;4.82;;;;;;;;;;5032170;28;20029;-59
2022/10/23 10:21:55;;;;;;;18.73;5.82;;;;;;;;;;5029800;28;20029;-59
2022/10/23 10:24:39;;;;;;;14.48;4.60;;;;;;;;;;5031771;28;20063;-59
2022/10/23 10:27:04;;;;;;;16.95;5.05;;;;;;;;;;5030497;28;20038;-59
2022/10/23 10:29:48;;;;;;;9.18;4.63;;;;;;;;;;5031653;28;20017;-59
2022/10/23 10:32:13;;;;;;;6.90;3.83;;;;;;;;;;5030589;28;20648;-58
2022/10/23 10:34:47;;;;;;;5.47;4.80;;;;;;;;;;5031457;28;20444;-59
2022/10/23 10:37:19;;;;;;;8.70;4.47;;;;;;;;;;5029969;28;20046;-59
2022/10/23 10:40:01;;;;;;;18.13;5.88;;;;;;;;;;5032004;28;20032;-58
2022/10/23 10:42:35;;;;;;;5.35;4.38;;;;;;;;;;5030270;28;20053;-58
2022/10/23 10:45:16;;;;;;;10.75;4.10;;;;;;;;;;5031405;28;20032;-59
2022/10/23 10:47:49;;;;;;;10.13;3.97;;;;;;;;;;5029730;28;20045;-59
2022/10/23 10:50:17;;;;;;;8.20;4.05;;;;;;;;;;5031638;28;20044;-59
2022/10/23 10:52:51;;;;;;;5.95;3.95;;;;;;;;;;5029309;28;20068;-59
2022/10/23 10:55:25;;;;;;;6.25;3.58;;;;;;;;;;5031510;28;20052;-59
2022/10/23 10:58:13;;;;;;;9.20;3.67;;;;;;;;;;5029805;28;20500;-59
2022/10/23 11:00:38;;;;;;;12.90;4.50;;;;;;;;;;5031262;28;20025;-59
2022/10/23 11:03:22;;;;;;;14.98;4.32;;;;;;;;;;5029728;28;20045;-58
2022/10/23 11:05:50;;;;;;;5.55;3.60;;;;;;;;;;5031361;28;20389;-59
2022/10/23 11:08:19;;;;;;;12.98;4.45;;;;;;;;;;5029764;28;20033;-58
2022/10/23 11:10:45;;;;;;;6.32;3.15;;;;;;;;;;5031343;28;20100;-59
2022/10/23 11:13:33;;;;;;;8.15;3.65;;;;;;;;;;5030072;28;20034;-59
2022/10/23 11:16:18;;;;;;;8.38;3.83;;;;;;;;;;5031603;28;20087;-59
2022/10/23 11:18:45;;;;;;;4.43;3.22;;;;;;;;;;5023970;28;20476;-58
2022/10/23 11:21:16;;;;;;;10.43;4.00;;;;;;;;;;5030677;28;20022;-58
2022/10/23 11:23:58;;;;;;;4.45;3.22;;;;;;;;;;5028913;28;20038;-58
2022/10/23 11:26:53;;;;;;;5.70;3.92;;;;;;;;;;5029603;28;20025;-59
2022/10/23 11:29:39;;;;;;;5.82;4.43;;;;;;;;;;5017267;28;20088;-59
2022/10/23 11:32:13;;;;;;;26.15;4.10;;;;;;;;;;5027646;28;20128;-59
2022/10/23 11:34:56;;;;;;;7.20;3.40;;;;;;;;;;5029960;28;20021;-59
2022/10/23 11:37:23;;;;;;;7.55;3.30;;;;;;;;;;5028279;28;20117;-59
2022/10/23 11:40:06;;;;;;;6.60;3.60;;;;;;;;;;5029897;28;20026;-59
2022/10/23 11:42:37;;;;;;;11.23;3.47;;;;;;;;;;5029248;28;20745;-59
2022/10/23 11:45:03;;;;;;;6.15;3.20;;;;;;;;;;5030163;28;20029;-59
2022/10/23 11:47:28;;;;;;;5.55;3.17;;;;;;;;;;5026129;28;20449;-59
2022/10/23 11:50:23;;;;;;;5.93;3.22;;;;;;;;;;5029567;28;20018;-59
2022/10/23 11:52:59;;;;;;;7.18;4.22;;;;;;;;;;5004411;28;20212;-59
2022/10/23 11:55:26;;;;;;;6.03;2.70;;;;;;;;;;5030077;28;20092;-59
2022/10/23 11:58:03;;;;;;;9.55;2.80;;;;;;;;;;5028900;28;20116;-59
2022/10/23 12:00:28;;;;;;;6.65;2.85;;;;;;;;;;5030308;28;20025;-59
2022/10/23 12:02:54;;;;;;;9.98;2.95;;;;;;;;;;5029272;28;20503;-59
2022/10/23 12:05:39;;;;;;;4.15;2.90;;;;;;;;;;5030269;28;20033;-58
2022/10/23 12:08:06;;;;;;;8.07;3.67;;;;;;;;;;5029216;28;20084;-58
2022/10/23 12:10:42;;;;;;;3.40;2.58;;;;;;;;;;5029640;28;20017;-58
2022/10/23 12:13:27;;;;;;;10.20;3.83;;;;;;;;;;5028442;28;20140;-58
2022/10/23 12:15:53;;;;;;;6.53;3.22;;;;;;;;;;5030327;28;20030;-59
2022/10/23 12:18:18;;;;;;;5.55;2.42;;;;;;;;;;5028941;28;20067;-59
2022/10/23 12:20:48;;;;;;;5.18;3.10;;;;;;;;;;5029623;28;20502;-58
2022/10/23 12:23:31;;;;;;;2.20;2.03;;;;;;;;;;5028762;28;20092;-59
2022/10/23 12:26:15;;;;;;;6.15;3.47;;;;;;;;;;5030816;28;20059;-59
2022/10/23 12:28:43;;;;;;;6.55;3.67;;;;;;;;;;5027672;28;20059;-59
2022/10/23 12:31:17;;;;;;;11.55;2.63;;;;;;;;;;5030178;28;20555;-58
2022/10/23 12:34:00;;;;;;;10.50;3.67;;;;;;;;;;5009736;28;20369;-59
2022/10/23 12:36:40;;;;;;;33.47;4.75;;;;;;;;;;5027936;28;20038;-59
2022/10/23 12:39:23;;;;;;;7.57;2.88;;;;;;;;;;5030338;28;20025;-58
2022/10/23 12:41:49;;;;;;;3.53;2.25;;;;;;;;;;5028977;28;20033;-58
2022/10/23 12:44:14;;;;;;;2.83;2.23;;;;;;;;;;5028703;28;20062;-58
2022/10/23 12:46:40;;;;;;;3.00;2.45;;;;;;;;;;5027908;28;20409;-59
2022/10/23 12:49:13;;;;;;;5.00;2.38;;;;;;;;;;5029888;28;20052;-58
2022/10/23 12:51:38;;;;;;;6.22;2.17;;;;;;;;;;5027887;28;20049;-58
2022/10/23 12:54:13;;;;;;;5.72;2.30;;;;;;;;;;5030165;28;20036;-58
2022/10/23 12:56:38;;;;;;;7.43;2.30;;;;;;;;;;5028656;28;20038;-58
2022/10/23 12:59:03;;;;;;;9.03;2.53;;;;;;;;;;5030024;28;20025;-58
2022/10/23 13:01:30;;;;;;;5.38;2.33;;;;;;;;;;5028362;28;20575;-59
2022/10/23 13:03:57;;;;;;;8.02;2.83;;;;;;;;;;5029929;28;20025;-58
2022/10/23 13:06:23;;;;;;;4.70;2.77;;;;;;;;;;5027368;28;20104;-58
2022/10/23 13:08:48;;;;;;;3.95;2.10;;;;;;;;;;5029880;28;21190;-59
2022/10/23 13:11:14;;;;;;;8.60;2.67;;;;;;;;;;5029707;28;20096;-58
2022/10/23 13:13:40;;;;;;;10.90;3.55;;;;;;;;;;5028219;28;20037;-58
2022/10/23 13:16:12;;;;;;;8.57;2.72;;;;;;;;;;5029710;28;20101;-58
2022/10/23 13:18:41;;;;;;;10.02;2.90;;;;;;;;;;5017804;28;20048;-59
2022/10/23 13:21:09;;;;;;;7.32;2.75;;;;;;;;;;5029504;28;20067;-59
2022/10/23 13:23:35;;;;;;;10.77;2.28;;;;;;;;;;5028367;28;20541;-59
2022/10/23 13:26:01;;;;;;;5.73;2.00;;;;;;;;;;5031965;28;20113;-59
2022/10/23 13:28:26;;;;;;;6.80;2.47;;;;;;;;;;5031403;28;20954;-59
2022/10/23 13:31:02;;;;;;;5.70;2.67;;;;;;;;;;5033538;28;20055;-58
2022/10/23 13:33:32;;;;;;;7.40;3.60;;;;;;;;;;5031797;28;20052;-59
2022/10/23 13:35:59;;;;;;;2.90;1.60;;;;;;;;;;5032817;28;20400;-59
2022/10/23 13:38:39;;;;;;;5.00;1.85;;;;;;;;;;5031026;28;20072;-59
2022/10/23 13:41:05;;;;;;;8.65;2.20;;;;;;;;;;5033436;28;20029;-59
2022/10/23 13:43:32;;;;;;;15.10;3.95;;;;;;;;;;5030912;28;20042;-59
2022/10/23 13:45:58;;;;;;;5.50;2.40;;;;;;;;;;5033492;28;20431;-59
2022/10/23 13:48:23;;;;;;;5.15;1.73;;;;;;;;;;5030253;28;20033;-59
2022/10/23 13:50:48;;;;;;;5.13;1.43;;;;;;;;;;5032441;28;20576;-58
2022/10/23 13:53:14;;;;;;;4.83;2.53;;;;;;;;;;5031596;28;20048;-59
2022/10/23 13:55:39;;;;;;;3.88;1.85;;;;;;;;;;5032532;28;20489;-59
2022/10/23 13:58:05;;;;;;;2.92;2.38;;;;;;;;;;5031273;28;20493;-59
2022/10/23 14:00:30;;;;;;;9.50;2.30;;;;;;;;;;5032735;28;20418;-59
2022/10/23 14:02:55;;;;;;;7.22;3.05;;;;;;;;;;5030563;28;21053;-59
2022/10/23 14:05:21;;;;;;;9.68;3.85;;;;;;;;;;5032551;28;20030;-58
2022/10/23 14:07:46;;;;;;;5.18;3.10;;;;;;;;;;5031030;28;20094;-59
2022/10/23 14:10:11;;;;;;;9.07;3.15;;;;;;;;;;5032574;28;20048;-59
2022/10/23 14:12:40;;;;;;;14.68;3.17;;;;;;;;;;5030613;28;20029;-59
2022/10/23 14:15:05;;;;;;;7.13;3.65;;;;;;;;;;5032544;28;20029;-59
2022/10/23 14:17:30;;;;;;;8.00;2.80;;;;;;;;;;5030894;28;20405;-59
2022/10/23 14:19:56;;;;;;;10.70;3.43;;;;;;;;;;5031466;28;20024;-59
2022/10/23 14:22:21;;;;;;;7.78;2.20;;;;;;;;;;5031206;28;20459;-59
2022/10/23 14:24:46;;;;;;;9.50;2.60;;;;;;;;;;5031524;28;20025;-59
2022/10/23 14:27:11;;;;;;;17.45;4.00;;;;;;;;;;5028839;28;20476;-58
2022/10/23 14:29:36;;;;;;;24.35;4.55;;;;;;;;;;5031788;28;20449;-58
2022/10/23 14:32:01;;;;;;;4.50;2.70;;;;;;;;;;5031484;28;20083;-59
2022/10/23 14:34:26;;;;;;;8.27;2.85;;;;;;;;;;5031860;28;20031;-59